Branch, LA (70516)

1:38 PM CDT on September 30, 2014 (GMT -0500)
LeBlancPWS | Change Station
CLOSE
Current Station
Personal Weather Station
Location: Crowley, LA
Elevation: 23 ft
Nearby Weather Stations

Elev 23 ft 30.30 °N, 92.43 °W | Updated 12 seconds ago

Partly Cloudy
Partly Cloudy
85.5 °F
Feels Like 92 °F
N
5.0
Wind Variable Wind from SE
Gusts 8.0 mph

Today
High -- | Low -- °F
--% Chance of Precip.
Yesterday
High -- | Low -- °F
Precip. -- in
7:02 AM 6:55 PM
Waxing Crescent, 39% visible
Pressure 29.87 in
Visibility 10.0 miles
Clouds Mostly Cloudy 3800 ft
Heat Index 92 °F
Dew Point 73 °F
Humidity 66%
Rainfall 0.03 in
Snow Depth Not available.
UV 5 out of 12
Pollen 7.50 out of 12
Air Quality Not available.
Flu Activity Not available.
METAR K3R7 301820Z AUTO 13008KT 10SM BKN038 31/22 A2987 RMK AO2 T03110216

More Conditions Fewer Conditions

Pressure 29.87 in
Visibility 10.0 miles
Clouds Mostly Cloudy 3800 ft
Heat Index 92 °F
Dew Point 73 °F
Humidity 66%
Rainfall 0.03 in
Snow Depth Not available.
UV 5 out of 12
Pollen 7.50 out of 12
Air Quality Not available.
Flu Activity Not available.
METAR K3R7 301820Z AUTO 13008KT 10SM BKN038 31/22 A2987 RMK AO2 T03110216

More Conditions Fewer Conditions

10-Day Weather Forecast

Almanac

Astronomy

Sep. 30, 2014 Rise Set
Actual Time 7:02 AM CDT 6:55 PM CDT
Civil Twilight 6:38 AM CDT 7:19 PM CDT
Nautical Twilight 6:10 AM CDT 7:47 PM CDT
Astronomical Twilight 5:42 AM CDT 8:15 PM CDT
Moon 12:52 PM CDT 11:44 PM CDT
Length of Visible Light 12h 41m
Length of Day
11h 53m
Tomorrow will be 1m 49s shorter.
Waxing Crescent, 39% of the Moon is Illuminated
Today
Waxing Crescent
Oct 1
First Quarter
Oct 8
Full
Oct 15
Last Quarter
Oct 23
New

Today's Extremes

State Highs State Lows

Community

WunderPhotos

Upload Photos

1,757,714 photos uploaded!

Nearby

Snow Depth

Station Depth Elevation
No new snow has been reported.

Earthquake Activity

City Distance Mag. Time & Date
No recent earthquake activity has been reported nearby.
Minimum magnitude displayed is 2.5.

Coastal Water Temperatures

Place Temperature
No Stations Reporting

Nearby Weather Stations